createdAt,value
2019-04-20T00:02:08.358Z,15.57
2019-04-20T00:04:35.168Z,15.54
2019-04-20T00:07:00.279Z,15.58
2019-04-20T00:09:32.806Z,15.55
2019-04-20T00:12:06.881Z,15.57
2019-04-20T00:14:30.955Z,15.53
2019-04-20T00:16:56.836Z,15.43
2019-04-20T00:19:33.667Z,15.35
2019-04-20T00:22:06.239Z,15.32
2019-04-20T00:24:38.611Z,15.22
2019-04-20T00:27:27.134Z,15.22
2019-04-20T00:29:49.936Z,15.14
2019-04-20T00:32:15.573Z,15.08
2019-04-20T00:34:37.024Z,15.07
2019-04-20T00:37:02.395Z,15.11
2019-04-20T00:39:31.999Z,15.05
2019-04-20T00:42:05.643Z,15.10
2019-04-20T00:44:34.194Z,14.99
2019-04-20T00:47:08.445Z,14.94
2019-04-20T00:49:41.892Z,14.89
2019-04-20T00:52:25.325Z,14.96
2019-04-20T00:54:24.573Z,14.95
2019-04-20T00:57:07.817Z,15.00
2019-04-20T00:59:35.490Z,15.18
2019-04-20T01:02:09.099Z,14.99
2019-04-20T01:04:40.712Z,14.93
2019-04-20T01:07:14.103Z,14.89
2019-04-20T01:09:47.846Z,14.92
2019-04-20T01:12:22.561Z,15.20
2019-04-20T01:14:53.576Z,15.00
2019-04-20T01:17:13.876Z,14.95
2019-04-20T01:19:42.827Z,14.94
2019-04-20T01:22:15.965Z,14.91
2019-04-20T01:24:46.271Z,14.89
2019-04-20T01:27:24.906Z,14.85
2019-04-20T01:29:44.345Z,14.87
2019-04-20T01:32:18.769Z,14.80
2019-04-20T01:34:50.209Z,15.06
2019-04-20T01:37:25.123Z,14.88
2019-04-20T01:39:40.008Z,14.87
2019-04-20T01:42:04.457Z,14.82
2019-04-20T01:44:38.516Z,14.81
2019-04-20T01:47:03.658Z,14.72
2019-04-20T01:49:33.256Z,14.73
2019-04-20T01:52:07.118Z,14.66
2019-04-20T01:54:45.284Z,14.68
2019-04-20T01:57:11.632Z,14.65
2019-04-20T01:59:48.195Z,14.55
2019-04-20T02:02:51.558Z,14.57
2019-04-20T02:05:22.861Z,14.53
2019-04-20T02:07:48.797Z,14.51
2019-04-20T02:10:15.656Z,14.41
2019-04-20T02:12:44.005Z,14.45
2019-04-20T02:15:22.176Z,14.45
2019-04-20T02:17:46.970Z,14.40
2019-04-20T02:20:27.534Z,14.37
2019-04-20T02:22:57.009Z,14.36
2019-04-20T02:25:08.005Z,14.52
2019-04-20T02:27:43.297Z,14.27
2019-04-20T02:30:44.939Z,14.18
2019-04-20T02:33:17.902Z,14.13
2019-04-20T02:36:01.193Z,14.19
2019-04-20T02:39:05.730Z,14.17
2019-04-20T02:41:18.234Z,14.17
2019-04-20T02:44:11.688Z,14.07
2019-04-20T02:46:12.797Z,13.92
2019-04-20T02:48:41.215Z,13.98
2019-04-20T02:51:06.548Z,13.99
2019-04-20T02:53:40.631Z,13.99
2019-04-20T02:56:12.526Z,13.92
2019-04-20T02:58:35.694Z,13.96
2019-04-20T03:00:52.346Z,13.94
2019-04-20T03:03:13.467Z,13.94
2019-04-20T03:05:42.440Z,13.93
2019-04-20T03:08:17.667Z,13.91
2019-04-20T03:10:54.981Z,13.90
2019-04-20T03:13:19.759Z,13.89
2019-04-20T03:15:51.827Z,13.81
2019-04-20T03:18:17.915Z,13.83
2019-04-20T03:20:48.909Z,13.73
2019-04-20T03:26:05.543Z,13.71
2019-04-20T03:28:53.879Z,13.65
2019-04-20T03:32:03.771Z,13.83
2019-04-20T03:34:23.141Z,13.54
2019-04-20T03:36:33.734Z,13.58
2019-04-20T03:38:53.833Z,13.49
2019-04-20T03:41:14.830Z,13.39
2019-04-20T03:43:31.279Z,13.35
2019-04-20T03:46:06.560Z,13.33
2019-04-20T03:48:48.304Z,13.23
2019-04-20T03:51:27.934Z,13.10
2019-04-20T03:54:02.873Z,13.07
2019-04-20T03:56:42.282Z,13.03
2019-04-20T03:59:21.300Z,13.29
2019-04-20T04:04:44.020Z,12.96
2019-04-20T04:06:59.485Z,12.88
2019-04-20T04:09:35.805Z,12.88
2019-04-20T04:12:06.564Z,12.87
2019-04-20T04:14:22.447Z,12.84
2019-04-20T04:16:57.026Z,12.80
2019-04-20T04:19:26.021Z,12.75
2019-04-20T04:22:04.022Z,12.73
2019-04-20T04:24:29.109Z,12.70
2019-04-20T04:26:58.293Z,12.69
2019-04-20T04:29:38.033Z,12.61
2019-04-20T04:32:12.033Z,12.60
2019-04-20T04:34:33.765Z,12.58
2019-04-20T04:37:08.719Z,12.57
2019-04-20T04:39:30.943Z,12.53
2019-04-20T04:42:13.655Z,12.48
2019-04-20T04:44:23.916Z,12.46
2019-04-20T04:46:42.609Z,12.45
2019-04-20T04:49:16.537Z,12.45
2019-04-20T04:51:46.812Z,12.45
2019-04-20T04:54:16.614Z,12.45
2019-04-20T04:56:35.549Z,12.47
2019-04-20T04:59:04.365Z,12.74
2019-04-20T05:01:35.591Z,12.49
2019-04-20T05:04:23.258Z,12.47
2019-04-20T05:06:43.349Z,12.42
2019-04-20T05:09:03.295Z,12.38
2019-04-20T05:11:28.249Z,12.40
2019-04-20T05:14:03.338Z,12.42
2019-04-20T05:16:45.174Z,12.44
2019-04-20T05:19:19.029Z,12.77
2019-04-20T05:22:09.305Z,13.01
2019-04-20T05:24:42.700Z,12.78
2019-04-20T05:27:37.509Z,12.84
2019-04-20T05:29:44.721Z,12.88
2019-04-20T05:32:17.000Z,12.90
2019-04-20T05:35:07.377Z,12.88
2019-04-20T05:37:37.135Z,12.96
2019-04-20T05:39:57.756Z,13.03
2019-04-20T05:42:31.394Z,13.08
2019-04-20T05:44:56.506Z,13.14
2019-04-20T05:47:27.046Z,13.24
2019-04-20T05:49:56.064Z,13.50
2019-04-20T05:54:57.643Z,14.73
2019-04-20T05:57:26.344Z,15.52
2019-04-20T05:59:55.697Z,16.21
2019-04-20T06:02:23.140Z,16.84
2019-04-20T06:05:03.230Z,16.69
2019-04-20T06:07:21.505Z,16.60
2019-04-20T06:09:46.403Z,17.24
2019-04-20T06:14:57.169Z,19.74
2019-04-20T06:17:51.534Z,19.63
2019-04-20T06:20:21.837Z,19.50
2019-04-20T06:22:52.694Z,19.39
2019-04-20T06:28:02.021Z,19.95
2019-04-20T06:30:11.149Z,21.25
2019-04-20T06:33:31.388Z,21.83
2019-04-20T06:36:07.546Z,22.20
2019-04-20T06:38:34.894Z,22.68
2019-04-20T06:41:00.612Z,22.32
2019-04-20T06:43:12.488Z,22.19
2019-04-20T06:45:51.131Z,22.31
2019-04-20T06:48:21.677Z,22.02
2019-04-20T06:50:38.462Z,21.34
2019-04-20T06:53:23.923Z,21.09
2019-04-20T06:56:02.880Z,20.81
2019-04-20T06:58:36.099Z,21.50
2019-04-20T07:00:46.438Z,22.39
2019-04-20T07:03:33.690Z,23.21
2019-04-20T07:05:47.775Z,23.64
2019-04-20T07:08:27.610Z,24.18
2019-04-20T07:10:45.594Z,25.65
2019-04-20T07:13:06.169Z,26.71
2019-04-20T07:15:49.577Z,27.34
2019-04-20T07:18:32.369Z,27.78
2019-04-20T07:21:12.661Z,28.69
2019-04-20T07:23:41.411Z,29.82
2019-04-20T07:26:16.919Z,31.02
2019-04-20T07:28:47.489Z,31.14
2019-04-20T07:31:06.805Z,30.88
2019-04-20T07:33:43.094Z,30.51
2019-04-20T07:36:06.089Z,30.41
2019-04-20T07:38:40.611Z,30.66
2019-04-20T07:41:01.407Z,31.30
2019-04-20T07:43:30.036Z,32.43
2019-04-20T07:46:03.030Z,33.43
2019-04-20T07:48:29.284Z,33.97
2019-04-20T07:50:53.367Z,34.38
2019-04-20T07:53:25.787Z,34.76
2019-04-20T07:56:00.151Z,35.42
2019-04-20T07:58:19.817Z,35.04
2019-04-20T08:01:09.078Z,36.05
2019-04-20T08:03:38.135Z,36.45
2019-04-20T08:06:16.573Z,36.53
2019-04-20T08:08:53.159Z,35.97
2019-04-20T08:11:24.444Z,36.74
2019-04-20T08:13:56.958Z,37.16
2019-04-20T08:16:35.660Z,37.02
2019-04-20T08:18:53.895Z,37.82
2019-04-20T08:21:22.907Z,37.65
2019-04-20T08:23:49.072Z,38.71
2019-04-20T08:26:08.763Z,38.46
2019-04-20T08:28:42.595Z,38.80
2019-04-20T08:31:35.026Z,38.51
2019-04-20T08:36:41.697Z,37.71
2019-04-20T08:39:22.990Z,37.81
2019-04-20T08:41:39.806Z,38.16
2019-04-20T08:44:30.904Z,38.38
2019-04-20T08:46:45.610Z,38.51
2019-04-20T08:49:13.215Z,37.81
2019-04-20T08:51:48.336Z,38.93
2019-04-20T08:54:03.366Z,39.56
2019-04-20T08:56:25.152Z,39.26
2019-04-20T08:58:41.447Z,39.18
2019-04-20T09:01:14.088Z,39.10
2019-04-20T09:03:52.955Z,38.76
2019-04-20T09:06:23.807Z,39.32
2019-04-20T09:08:49.237Z,39.94
2019-04-20T09:11:21.824Z,39.76
2019-04-20T09:13:43.443Z,39.23
2019-04-20T09:16:04.209Z,39.33
2019-04-20T09:18:44.264Z,38.12
2019-04-20T09:21:13.726Z,38.20
2019-04-20T09:23:49.676Z,38.52
2019-04-20T09:26:20.574Z,39.44
2019-04-20T09:28:58.964Z,39.42
2019-04-20T09:31:31.378Z,39.39
2019-04-20T09:34:16.240Z,39.29
2019-04-20T09:36:47.211Z,39.40
2019-04-20T09:39:27.163Z,38.95
2019-04-20T09:42:00.694Z,38.94
2019-04-20T09:44:25.676Z,38.51
2019-04-20T09:46:56.312Z,38.78
2019-04-20T09:49:37.758Z,38.72
2019-04-20T09:52:04.746Z,39.04
2019-04-20T09:54:40.384Z,39.25
2019-04-20T09:57:09.478Z,38.46
2019-04-20T09:59:33.575Z,38.50
2019-04-20T10:01:48.908Z,38.01
2019-04-20T10:04:15.235Z,38.10
2019-04-20T10:06:43.607Z,38.20
2019-04-20T10:09:11.895Z,38.12
2019-04-20T10:11:43.753Z,38.21
2019-04-20T10:14:10.403Z,38.66
2019-04-20T10:16:40.016Z,38.08
2019-04-20T10:19:11.675Z,37.92
2019-04-20T10:21:37.988Z,38.06
2019-04-20T10:24:06.314Z,37.63
2019-04-20T10:26:34.869Z,38.01
2019-04-20T10:29:03.802Z,38.22
2019-04-20T10:31:35.689Z,38.05
2019-04-20T10:34:01.778Z,38.53
2019-04-20T10:36:38.017Z,38.25
2019-04-20T10:39:08.798Z,37.95
2019-04-20T10:41:45.152Z,37.39
2019-04-20T10:44:07.166Z,37.54
2019-04-20T10:46:36.245Z,37.85
2019-04-20T10:49:06.033Z,37.65
2019-04-20T10:51:33.748Z,37.57
2019-04-20T10:54:02.645Z,37.64
2019-04-20T10:56:31.759Z,37.63
2019-04-20T10:59:01.434Z,37.65
2019-04-20T11:01:29.710Z,37.98
2019-04-20T11:03:58.794Z,38.38
2019-04-20T11:06:28.732Z,38.05
2019-04-20T11:08:56.486Z,38.14
2019-04-20T11:11:28.639Z,37.62
2019-04-20T11:13:55.346Z,37.30
2019-04-20T11:16:24.351Z,37.34
2019-04-20T11:18:53.563Z,37.11
2019-04-20T11:21:24.708Z,37.48
2019-04-20T11:23:54.030Z,36.80
2019-04-20T11:26:22.100Z,36.14
2019-04-20T11:28:50.708Z,36.48
2019-04-20T11:31:20.041Z,36.13
2019-04-20T11:33:49.948Z,36.20
2019-04-20T11:36:18.894Z,35.99
2019-04-20T11:38:47.043Z,35.48
2019-04-20T11:41:23.007Z,35.93
2019-04-20T11:43:44.495Z,34.93
2019-04-20T11:46:14.515Z,33.87
2019-04-20T11:48:43.480Z,33.51
2019-04-20T11:51:11.676Z,33.23
2019-04-20T11:53:40.505Z,32.76
2019-04-20T11:56:14.577Z,32.01
2019-04-20T11:58:38.781Z,31.84
2019-04-20T12:01:37.990Z,31.68
2019-04-20T12:04:13.035Z,31.15
2019-04-20T12:06:30.832Z,31.21
2019-04-20T12:09:00.914Z,31.13
2019-04-20T12:11:37.129Z,30.53
2019-04-20T12:13:58.684Z,30.50
2019-04-20T12:16:27.746Z,30.47
2019-04-20T12:18:56.633Z,30.34
2019-04-20T12:21:24.368Z,30.19
2019-04-20T12:23:54.063Z,30.01
2019-04-20T12:26:22.680Z,30.06
2019-04-20T12:28:51.621Z,29.97
2019-04-20T12:31:23.963Z,29.77
2019-04-20T12:33:50.430Z,29.93
2019-04-20T12:36:18.400Z,30.02
2019-04-20T12:38:47.223Z,29.93
2019-04-20T12:41:16.286Z,29.93
2019-04-20T12:43:45.690Z,29.65
2019-04-20T12:46:17.860Z,29.72
2019-04-20T12:48:43.843Z,29.84
2019-04-20T12:51:13.289Z,29.96
2019-04-20T12:53:42.558Z,29.65
2019-04-20T12:56:10.674Z,29.54
2019-04-20T12:58:42.992Z,29.35
2019-04-20T13:01:08.432Z,29.13
2019-04-20T13:03:37.516Z,29.06
2019-04-20T13:06:07.885Z,29.02
2019-04-20T13:08:44.109Z,28.76
2019-04-20T13:11:53.045Z,28.93
2019-04-20T13:14:40.152Z,29.05
2019-04-20T13:17:24.148Z,29.14
2019-04-20T13:23:29.036Z,29.23
2019-04-20T13:39:25.063Z,28.80
2019-04-20T13:49:04.995Z,28.76
2019-04-20T13:52:18.136Z,28.65
2019-04-20T13:55:35.931Z,28.66
2019-04-20T13:59:03.770Z,28.59
2019-04-20T14:02:07.592Z,28.62
2019-04-20T14:05:16.852Z,28.69
2019-04-20T14:16:14.278Z,28.68
2019-04-20T14:16:50.477Z,28.50
2019-04-20T14:25:54.565Z,28.29
2019-04-20T14:27:03.395Z,28.20
2019-04-20T14:28:58.574Z,28.41
2019-04-20T14:34:29.135Z,28.03
2019-04-20T14:37:12.933Z,27.97
2019-04-20T14:39:56.569Z,28.02
2019-04-20T14:42:54.644Z,28.12
2019-04-20T14:46:06.798Z,28.03
2019-04-20T14:51:12.156Z,27.95
2019-04-20T14:52:29.323Z,28.04
2019-04-20T14:55:12.534Z,27.98
2019-04-20T14:58:01.923Z,28.03
2019-04-20T15:01:30.324Z,27.99
2019-04-20T15:04:06.914Z,27.83
2019-04-20T15:06:46.460Z,27.75
2019-04-20T15:10:13.611Z,27.70
2019-04-20T15:16:46.841Z,27.42
2019-04-20T15:20:03.401Z,27.45
2019-04-20T15:26:20.408Z,27.26
2019-04-20T15:29:24.640Z,27.21
2019-04-20T15:32:59.150Z,27.01
2019-04-20T15:35:38.056Z,27.00
2019-04-20T15:41:41.080Z,26.97
2019-04-20T15:44:47.239Z,26.86
2019-04-20T15:47:34.549Z,26.81
2019-04-20T15:50:33.847Z,26.69
2019-04-20T15:53:19.704Z,26.55
2019-04-20T15:56:18.522Z,26.57
2019-04-20T15:58:52.821Z,26.57
2019-04-20T16:02:33.853Z,26.47
2019-04-20T16:09:08.355Z,26.33
2019-04-20T16:11:41.999Z,26.30
2019-04-20T16:14:37.736Z,26.27
2019-04-20T16:17:25.192Z,26.26
2019-04-20T16:20:06.264Z,26.24
2019-04-20T16:23:04.753Z,26.16
2019-04-20T16:26:26.628Z,26.09
2019-04-20T16:29:01.829Z,26.03
2019-04-20T16:31:40.590Z,25.96
2019-04-20T16:34:38.087Z,25.96
2019-04-20T16:37:28.644Z,25.77
2019-04-20T16:40:04.088Z,25.74
2019-04-20T16:43:02.635Z,25.71
2019-04-20T16:49:21.265Z,25.56
2019-04-20T16:52:19.116Z,25.51
2019-04-20T16:54:59.731Z,25.37
2019-04-20T16:57:55.409Z,25.28
2019-04-20T17:00:27.674Z,25.23
2019-04-20T17:09:21.985Z,25.03
2019-04-20T17:18:11.781Z,24.89
2019-04-20T17:21:04.463Z,24.76
2019-04-20T17:23:45.671Z,24.70
2019-04-20T17:29:30.318Z,24.71
2019-04-20T17:32:08.063Z,24.52
2019-04-20T17:35:00.107Z,24.44
2019-04-20T17:37:24.739Z,24.51
2019-04-20T17:40:18.784Z,24.33
2019-04-20T17:42:45.049Z,24.21
2019-04-20T17:45:42.177Z,24.06
2019-04-20T17:51:53.466Z,23.83
2019-04-20T17:54:53.241Z,23.72
2019-04-20T17:59:30.460Z,23.59
2019-04-20T18:00:22.481Z,23.50
2019-04-20T18:03:30.210Z,23.42
2019-04-20T18:06:09.487Z,23.31
2019-04-20T18:08:40.439Z,23.26
2019-04-20T18:10:58.567Z,23.14
2019-04-20T18:13:21.806Z,23.00
2019-04-20T18:16:11.524Z,22.92
2019-04-20T18:18:47.828Z,23.03
2019-04-20T18:21:12.895Z,22.79
2019-04-20T18:23:44.804Z,22.65
2019-04-20T18:26:31.802Z,22.46
2019-04-20T18:29:06.905Z,22.37
2019-04-20T18:31:23.766Z,22.22
2019-04-20T18:33:54.438Z,22.08
2019-04-20T18:36:30.633Z,21.97
2019-04-20T18:38:58.910Z,21.83
2019-04-20T18:41:30.842Z,21.71
2019-04-20T18:43:55.346Z,21.52
2019-04-20T18:46:39.291Z,21.36
2019-04-20T18:49:04.747Z,21.20
2019-04-20T18:51:17.612Z,21.07
2019-04-20T18:53:48.641Z,20.97
2019-04-20T18:56:18.583Z,20.85
2019-04-20T18:58:45.216Z,21.05
2019-04-20T19:01:13.024Z,20.73
2019-04-20T19:03:44.455Z,20.63
2019-04-20T19:06:12.346Z,20.52
2019-04-20T19:08:46.254Z,20.37
2019-04-20T19:11:13.199Z,20.22
2019-04-20T19:13:45.884Z,20.13
2019-04-20T19:16:36.617Z,20.08
2019-04-20T19:19:24.560Z,19.91
2019-04-20T19:21:43.743Z,19.77
2019-04-20T19:24:14.755Z,19.67
2019-04-20T19:26:44.948Z,19.51
2019-04-20T19:29:19.983Z,19.52
2019-04-20T19:31:56.938Z,19.45
2019-04-20T19:34:26.095Z,19.37
2019-04-20T19:36:42.477Z,19.29
2019-04-20T19:39:21.335Z,19.25
2019-04-20T19:41:47.753Z,19.28
2019-04-20T19:44:16.082Z,19.29
2019-04-20T19:46:53.704Z,19.27
2019-04-20T19:49:19.375Z,19.22
2019-04-20T19:52:02.727Z,19.17
2019-04-20T19:54:23.867Z,19.05
2019-04-20T19:56:47.392Z,18.98
2019-04-20T19:59:10.970Z,18.93
2019-04-20T20:01:29.529Z,18.84
2019-04-20T20:04:02.255Z,18.83
2019-04-20T20:06:35.475Z,18.80
2019-04-20T20:09:00.567Z,18.76
2019-04-20T20:11:30.228Z,18.65
2019-04-20T20:13:55.427Z,18.63
2019-04-20T20:16:30.435Z,18.56
2019-04-20T20:19:03.899Z,18.53
2019-04-20T20:21:34.194Z,18.43
2019-04-20T20:23:50.121Z,18.37
2019-04-20T20:26:25.007Z,18.29
2019-04-20T20:29:02.550Z,18.29
2019-04-20T20:31:27.553Z,18.22
2019-04-20T20:33:59.028Z,18.24
2019-04-20T20:36:19.658Z,18.23
2019-04-20T20:38:50.231Z,18.21
2019-04-20T20:41:21.789Z,18.16
2019-04-20T20:43:53.624Z,18.15
2019-04-20T20:46:19.413Z,18.14
2019-04-20T20:49:06.240Z,18.02
2019-04-20T20:51:35.537Z,18.02
2019-04-20T20:53:51.296Z,18.21
2019-04-20T20:56:15.056Z,18.04
2019-04-20T20:58:48.521Z,18.02
2019-04-20T21:01:10.790Z,17.89
2019-04-20T21:03:41.817Z,17.87
2019-04-20T21:06:03.315Z,17.74
2019-04-20T21:08:31.489Z,17.74
2019-04-20T21:11:00.180Z,17.67
2019-04-20T21:13:37.899Z,17.55
2019-04-20T21:16:03.079Z,17.54
2019-04-20T21:18:49.094Z,17.54
2019-04-20T21:21:13.289Z,17.43
2019-04-20T21:23:36.760Z,17.42
2019-04-20T21:26:11.475Z,17.40
2019-04-20T21:28:39.826Z,17.39
2019-04-20T21:31:13.796Z,17.29
2019-04-20T21:33:38.842Z,17.21
2019-04-20T21:36:06.970Z,17.18
2019-04-20T21:38:39.285Z,17.13
2019-04-20T21:41:09.416Z,17.00
2019-04-20T21:43:37.275Z,16.81
2019-04-20T21:46:04.860Z,16.74
2019-04-20T21:48:46.629Z,16.68
2019-04-20T21:51:15.257Z,16.64
2019-04-20T21:53:31.907Z,16.58
2019-04-20T21:55:57.552Z,16.54
2019-04-20T21:58:32.277Z,16.77
2019-04-20T22:01:08.035Z,16.54
2019-04-20T22:03:27.276Z,16.34
2019-04-20T22:06:04.727Z,16.21
2019-04-20T22:08:32.754Z,16.06
2019-04-20T22:11:01.914Z,16.04
2019-04-20T22:13:36.553Z,16.01
2019-04-20T22:16:05.436Z,15.89
2019-04-20T22:18:28.815Z,15.74
2019-04-20T22:21:05.848Z,15.64
2019-04-20T22:23:43.389Z,15.64
2019-04-20T22:26:10.233Z,15.63
2019-04-20T22:28:24.464Z,15.50
2019-04-20T22:30:53.905Z,15.46
2019-04-20T22:33:30.989Z,15.41
2019-04-20T22:35:58.907Z,15.37
2019-04-20T22:38:54.499Z,15.27
2019-04-20T22:41:21.258Z,15.19
2019-04-20T22:43:48.084Z,15.14
2019-04-20T22:46:17.502Z,15.08
2019-04-20T22:48:52.076Z,15.08
2019-04-20T22:51:30.183Z,15.27
2019-04-20T22:53:55.886Z,15.06
2019-04-20T22:56:30.320Z,14.99
2019-04-20T22:58:52.772Z,14.95
2019-04-20T23:01:19.425Z,14.88
2019-04-20T23:03:38.939Z,14.83
2019-04-20T23:06:08.932Z,15.04
2019-04-20T23:08:36.689Z,14.78
2019-04-20T23:11:09.605Z,14.66
2019-04-20T23:13:39.730Z,14.55
2019-04-20T23:16:04.421Z,14.56
2019-04-20T23:18:33.909Z,14.52
2019-04-20T23:21:07.994Z,14.51
2019-04-20T23:23:32.150Z,14.53
2019-04-20T23:26:00.848Z,14.50
2019-04-20T23:28:29.149Z,14.40
2019-04-20T23:31:02.492Z,14.30
2019-04-20T23:33:27.674Z,14.20
2019-04-20T23:35:59.172Z,14.11
2019-04-20T23:38:24.830Z,14.35
2019-04-20T23:40:53.500Z,14.05
2019-04-20T23:43:29.031Z,13.98
2019-04-20T23:46:24.702Z,13.99
2019-04-20T23:49:18.779Z,13.98
2019-04-20T23:51:54.221Z,13.96
2019-04-20T23:54:12.944Z,13.91
2019-04-20T23:56:35.307Z,13.92
2019-04-20T23:59:04.359Z,13.91
